createdAt,value
2023-02-02T00:04:49.448Z,2.66
2023-02-02T00:09:52.049Z,2.68
2023-02-02T00:14:54.673Z,2.70
2023-02-02T00:19:57.382Z,2.71
2023-02-02T00:25:00.047Z,2.67
2023-02-02T00:30:03.853Z,2.65
2023-02-02T00:35:08.092Z,2.64
2023-02-02T00:40:11.405Z,2.62
2023-02-02T00:45:16.744Z,2.61
2023-02-02T00:50:21.156Z,2.59
2023-02-02T00:55:24.783Z,2.58
2023-02-02T01:00:28.384Z,2.55
2023-02-02T01:05:31.901Z,2.44
2023-02-02T01:10:35.511Z,2.28
2023-02-02T01:15:38.232Z,2.10
2023-02-02T01:20:40.902Z,1.96
2023-02-02T01:25:43.569Z,1.82
2023-02-02T01:30:46.314Z,1.72
2023-02-02T01:35:51.563Z,1.59
2023-02-02T01:40:56.435Z,1.51
2023-02-02T01:45:59.261Z,1.48
2023-02-02T01:51:06.665Z,1.49
2023-02-02T01:56:12.502Z,1.48
2023-02-02T02:01:15.225Z,1.50
2023-02-02T02:06:19.837Z,1.54
2023-02-02T02:11:23.931Z,1.60
2023-02-02T02:16:29.437Z,1.67
2023-02-02T02:21:52.184Z,1.77
2023-02-02T02:26:57.900Z,1.87
2023-02-02T02:32:06.283Z,1.93
2023-02-02T02:37:16.591Z,1.99
2023-02-02T02:42:24.191Z,2.03
2023-02-02T02:47:30.226Z,2.12
2023-02-02T02:52:34.553Z,2.22
2023-02-02T02:57:42.020Z,2.29
2023-02-02T03:02:47.600Z,2.35
2023-02-02T03:08:01.226Z,2.42
2023-02-02T03:13:13.702Z,2.51
2023-02-02T03:18:19.697Z,2.57
2023-02-02T03:23:22.349Z,2.66
2023-02-02T03:28:25.776Z,2.72
2023-02-02T03:33:29.849Z,2.76
2023-02-02T03:38:35.336Z,2.79
2023-02-02T03:43:37.969Z,2.82
2023-02-02T03:48:40.601Z,2.84
2023-02-02T03:53:44.680Z,2.87
2023-02-02T03:58:47.449Z,2.88
2023-02-02T04:03:50.347Z,2.85
2023-02-02T04:08:53.171Z,2.83
2023-02-02T04:13:55.986Z,2.81
2023-02-02T04:18:58.845Z,2.83
2023-02-02T04:24:01.514Z,2.83
2023-02-02T04:29:04.194Z,2.81
2023-02-02T04:34:06.877Z,2.81
2023-02-02T04:39:11.750Z,2.79
2023-02-02T04:44:16.020Z,2.77
2023-02-02T04:49:18.647Z,2.78
2023-02-02T04:54:21.453Z,2.76
2023-02-02T04:59:24.234Z,2.73
2023-02-02T05:04:27.466Z,2.75
2023-02-02T05:09:32.474Z,2.77
2023-02-02T05:14:35.087Z,2.77
2023-02-02T05:19:38.023Z,2.72
2023-02-02T05:24:40.648Z,2.66
2023-02-02T05:29:43.246Z,2.65
2023-02-02T05:34:45.899Z,2.66
2023-02-02T05:39:49.798Z,2.68
2023-02-02T05:44:52.517Z,2.71
2023-02-02T05:49:55.202Z,2.70
2023-02-02T05:54:57.801Z,2.66
2023-02-02T06:00:00.420Z,2.57
2023-02-02T06:05:03.160Z,2.49
2023-02-02T06:10:06.102Z,2.47
2023-02-02T06:15:09.205Z,2.50
2023-02-02T06:20:12.706Z,2.56
2023-02-02T06:25:17.650Z,2.56
2023-02-02T06:30:20.353Z,2.60
2023-02-02T06:35:23.391Z,2.66
2023-02-02T06:40:28.148Z,2.72
2023-02-02T06:45:31.189Z,2.78
2023-02-02T06:50:33.830Z,2.83
2023-02-02T06:55:36.451Z,2.84
2023-02-02T07:00:39.079Z,2.88
2023-02-02T07:12:49.620Z,2.97
2023-02-02T07:17:54.703Z,3.02
2023-02-02T07:22:57.436Z,3.06
2023-02-02T07:28:00.097Z,3.16
2023-02-02T07:33:02.897Z,3.19
2023-02-02T07:38:05.514Z,3.09
2023-02-02T07:43:08.429Z,3.10
2023-02-02T07:48:11.023Z,3.19
2023-02-02T07:53:14.554Z,3.36
2023-02-02T07:58:17.205Z,3.50
2023-02-02T08:03:19.799Z,3.49
2023-02-02T08:08:22.429Z,3.45
2023-02-02T08:13:25.085Z,3.43
2023-02-02T08:18:27.741Z,3.45
2023-02-02T08:23:31.268Z,3.66
2023-02-02T08:28:36.606Z,3.95
2023-02-02T08:33:39.902Z,4.14
2023-02-02T08:38:42.676Z,4.18
2023-02-02T08:43:45.945Z,4.06
2023-02-02T08:48:48.937Z,3.92
2023-02-02T08:53:51.585Z,3.73
2023-02-02T08:58:56.322Z,3.58
2023-02-02T09:04:02.261Z,3.49
2023-02-02T09:09:08.764Z,3.41
2023-02-02T09:14:13.803Z,3.29
2023-02-02T09:19:17.147Z,3.25
2023-02-02T09:24:19.782Z,3.29
2023-02-02T09:29:22.406Z,3.42
2023-02-02T09:34:25.153Z,3.63
2023-02-02T09:39:28.296Z,3.87
2023-02-02T09:44:33.819Z,3.88
2023-02-02T09:49:40.098Z,3.75
2023-02-02T09:54:46.386Z,3.69
2023-02-02T09:59:50.366Z,3.78
2023-02-02T10:05:00.549Z,4.03
2023-02-02T10:10:13.114Z,4.20
2023-02-02T10:15:30.544Z,4.28
2023-02-02T10:20:37.065Z,4.32
2023-02-02T10:25:49.239Z,4.47
2023-02-02T10:31:01.762Z,4.67
2023-02-02T10:36:09.831Z,4.90
2023-02-02T10:41:15.591Z,4.97
2023-02-02T10:46:22.995Z,4.92
2023-02-02T10:51:28.210Z,4.94
2023-02-02T10:56:39.771Z,5.19
2023-02-02T11:01:42.681Z,5.33
2023-02-02T11:06:48.315Z,5.19
2023-02-02T11:11:55.671Z,5.20
2023-02-02T11:17:03.053Z,5.40
2023-02-02T11:22:05.860Z,5.67
2023-02-02T11:27:14.199Z,5.57
2023-02-02T11:32:28.264Z,5.39
2023-02-02T11:37:34.582Z,5.22
2023-02-02T11:42:38.234Z,4.88
2023-02-02T11:47:41.904Z,4.59
2023-02-02T11:52:46.310Z,4.45
2023-02-02T11:57:54.699Z,4.49
2023-02-02T12:02:59.074Z,4.59
2023-02-02T12:08:01.989Z,4.67
2023-02-02T12:13:13.753Z,4.67
2023-02-02T12:18:22.216Z,4.57
2023-02-02T12:23:30.651Z,4.47
2023-02-02T12:28:37.141Z,4.48
2023-02-02T12:33:41.771Z,4.56
2023-02-02T12:38:46.767Z,4.70
2023-02-02T12:44:13.679Z,4.79
2023-02-02T12:49:45.574Z,4.69
2023-02-02T12:55:03.656Z,4.56
2023-02-02T13:00:10.575Z,4.59
2023-02-02T13:05:19.428Z,4.57
2023-02-02T13:10:26.311Z,4.39
2023-02-02T13:15:37.150Z,4.28
2023-02-02T13:20:45.215Z,4.11
2023-02-02T13:25:53.553Z,3.72
2023-02-02T13:30:59.245Z,3.59
2023-02-02T13:36:08.425Z,3.89
2023-02-02T13:41:13.376Z,4.37
2023-02-02T13:46:19.181Z,4.37
2023-02-02T13:51:27.619Z,4.37
2023-02-02T13:56:33.253Z,4.11
2023-02-02T14:01:36.228Z,4.32
2023-02-02T14:06:44.708Z,4.47
2023-02-02T14:11:58.436Z,3.97
2023-02-02T14:17:07.278Z,3.36
2023-02-02T14:22:09.920Z,2.86
2023-02-02T14:27:12.704Z,2.46
2023-02-02T14:32:21.120Z,2.21
2023-02-02T14:37:23.738Z,2.18
2023-02-02T14:42:36.047Z,2.22
2023-02-02T14:48:00.387Z,2.26
2023-02-02T14:53:31.672Z,2.28
2023-02-02T14:58:40.434Z,2.30
2023-02-02T15:03:45.762Z,2.28
2023-02-02T15:08:54.226Z,2.22
2023-02-02T15:14:07.061Z,2.17
2023-02-02T15:19:20.443Z,2.13
2023-02-02T15:24:27.070Z,2.11
2023-02-02T15:29:38.407Z,2.06
2023-02-02T15:34:46.559Z,2.03
2023-02-02T15:39:53.053Z,2.01
2023-02-02T15:44:55.790Z,1.94
2023-02-02T15:49:59.389Z,1.84
2023-02-02T15:55:02.355Z,1.75
2023-02-02T16:00:10.752Z,1.62
2023-02-02T16:05:19.143Z,1.54
2023-02-02T16:10:22.368Z,1.47
2023-02-02T16:15:28.299Z,1.42
2023-02-02T16:20:36.200Z,1.39
2023-02-02T16:25:46.365Z,1.40
2023-02-02T16:30:51.709Z,1.36
2023-02-02T16:35:54.999Z,1.33
2023-02-02T16:41:02.542Z,1.31
2023-02-02T16:46:08.581Z,1.31
2023-02-02T16:51:25.201Z,1.32
2023-02-02T16:56:32.979Z,1.34
2023-02-02T17:01:47.051Z,1.35
2023-02-02T17:06:53.239Z,1.23
2023-02-02T17:11:59.159Z,1.11
2023-02-02T17:17:06.124Z,1.03
2023-02-02T17:22:09.923Z,1.02
2023-02-02T17:27:17.439Z,0.95
2023-02-02T17:32:20.094Z,0.91
2023-02-02T17:37:22.773Z,0.87
2023-02-02T17:42:27.899Z,0.82
2023-02-02T17:47:30.562Z,0.74
2023-02-02T17:52:33.314Z,0.66
2023-02-02T17:57:36.195Z,0.60
2023-02-02T18:02:39.141Z,0.58
2023-02-02T18:07:42.406Z,0.57
2023-02-02T18:12:45.253Z,0.58
2023-02-02T18:17:47.853Z,0.56
2023-02-02T18:22:51.984Z,0.53
2023-02-02T18:27:57.297Z,0.52
2023-02-02T18:33:00.535Z,0.53
2023-02-02T18:38:03.156Z,0.62
2023-02-02T18:43:05.885Z,0.71
2023-02-02T18:48:08.681Z,0.74
2023-02-02T18:53:11.363Z,0.74
2023-02-02T18:58:14.603Z,0.75
2023-02-02T19:03:17.295Z,0.73
2023-02-02T19:08:22.394Z,0.71
2023-02-02T19:13:25.016Z,0.71
2023-02-02T19:18:31.661Z,0.67
2023-02-02T19:23:37.256Z,0.61
2023-02-02T19:28:39.965Z,0.64
2023-02-02T19:33:46.311Z,0.69
2023-02-02T19:38:51.725Z,0.73
2023-02-02T19:43:58.677Z,0.73
2023-02-02T19:49:11.569Z,0.70
2023-02-02T19:54:24.124Z,0.68
2023-02-02T19:59:32.506Z,0.67
2023-02-02T20:04:35.148Z,0.63
2023-02-02T20:09:37.740Z,0.59
2023-02-02T20:14:41.827Z,0.58
2023-02-02T20:19:46.178Z,0.57
2023-02-02T20:24:49.862Z,0.59
2023-02-02T20:29:54.782Z,0.62
2023-02-02T20:34:59.226Z,0.65
2023-02-02T20:40:07.677Z,0.66
2023-02-02T20:45:10.330Z,0.62
2023-02-02T20:50:15.429Z,0.54
2023-02-02T20:55:20.735Z,0.46
2023-02-02T21:00:27.138Z,0.37
2023-02-02T21:05:29.988Z,0.30
2023-02-02T21:10:32.678Z,0.22
2023-02-02T21:15:35.294Z,0.18
2023-02-02T21:20:37.952Z,0.20
2023-02-02T21:25:40.589Z,0.22
2023-02-02T21:30:45.919Z,0.22
2023-02-02T21:35:48.602Z,0.15
2023-02-02T21:40:56.263Z,0.05
2023-02-02T21:46:02.866Z,-0.04
2023-02-02T21:51:11.671Z,-0.13
2023-02-02T21:56:37.065Z,-0.17
2023-02-02T22:01:40.312Z,-0.19
2023-02-02T22:06:47.677Z,-0.21
2023-02-02T22:11:58.996Z,-0.25
2023-02-02T22:17:01.667Z,-0.32
2023-02-02T22:22:07.155Z,-0.38
2023-02-02T22:27:15.553Z,-0.43
2023-02-02T22:32:18.180Z,-0.45
2023-02-02T22:37:20.831Z,-0.51
2023-02-02T22:42:23.449Z,-0.65
2023-02-02T22:47:26.094Z,-0.80
2023-02-02T22:52:28.716Z,-0.87
2023-02-02T22:57:31.354Z,-0.91
2023-02-02T23:02:34.043Z,-0.92
2023-02-02T23:07:37.107Z,-0.93
2023-02-02T23:12:41.465Z,-1.02
2023-02-02T23:17:44.129Z,-1.13
2023-02-02T23:22:46.821Z,-1.27
2023-02-02T23:27:49.783Z,-1.41
2023-02-02T23:32:53.054Z,-1.51
2023-02-02T23:37:55.659Z,-1.61
2023-02-02T23:42:58.260Z,-1.71
2023-02-02T23:48:01.206Z,-1.80
2023-02-02T23:53:05.561Z,-1.87
2023-02-02T23:58:09.120Z,-1.96
